createdAt,value
2019-04-21T00:02:42.382Z,14.69
2019-04-21T00:07:04.477Z,14.64
2019-04-21T00:11:15.300Z,14.55
2019-04-21T00:15:12.436Z,14.48
2019-04-21T00:19:28.063Z,14.33
2019-04-21T00:23:47.334Z,14.26
2019-04-21T00:27:50.368Z,14.11
2019-04-21T00:31:57.936Z,14.08
2019-04-21T00:35:59.270Z,14.01
2019-04-21T00:40:18.739Z,14.00
2019-04-21T00:44:14.256Z,13.90
2019-04-21T00:48:32.941Z,13.84
2019-04-21T00:52:58.242Z,13.72
2019-04-21T00:57:02.673Z,13.73
2019-04-21T01:01:08.925Z,13.67
2019-04-21T01:05:18.310Z,13.65
2019-04-21T01:09:13.808Z,13.52
2019-04-21T01:13:27.957Z,13.46
2019-04-21T01:17:28.801Z,13.39
2019-04-21T01:21:18.328Z,13.37
2019-04-21T01:25:34.843Z,13.19
2019-04-21T01:29:58.790Z,13.11
2019-04-21T01:33:57.708Z,13.05
2019-04-21T01:38:10.970Z,12.99
2019-04-21T01:42:09.494Z,12.90
2019-04-21T01:46:16.395Z,12.75
2019-04-21T01:50:21.077Z,12.67
2019-04-21T01:55:04.882Z,12.60
2019-04-21T01:58:55.283Z,12.57
2019-04-21T02:03:28.959Z,12.48
2019-04-21T02:07:20.683Z,12.45
2019-04-21T02:11:30.037Z,12.37
2019-04-21T02:15:42.388Z,12.21
2019-04-21T02:19:35.958Z,12.21
2019-04-21T02:23:57.427Z,12.17
2019-04-21T02:28:01.155Z,12.07
2019-04-21T02:32:20.227Z,11.99
2019-04-21T02:36:40.350Z,12.00
2019-04-21T02:40:35.674Z,11.90
2019-04-21T02:44:39.268Z,11.88
2019-04-21T02:48:43.554Z,11.65
2019-04-21T02:57:01.595Z,11.56
2019-04-21T03:01:14.447Z,11.48
2019-04-21T03:05:41.709Z,11.41
2019-04-21T03:09:44.452Z,11.38
2019-04-21T03:18:08.199Z,11.32
2019-04-21T03:21:57.613Z,11.24
2019-04-21T03:26:11.771Z,11.25
2019-04-21T03:30:45.142Z,11.29
2019-04-21T03:34:51.537Z,11.22
2019-04-21T03:38:27.058Z,11.09
2019-04-21T03:42:34.508Z,10.94
2019-04-21T03:46:41.869Z,10.86
2019-04-21T03:50:51.915Z,10.67
2019-04-21T03:59:16.566Z,10.75
2019-04-21T04:04:07.004Z,10.53
2019-04-21T04:08:12.880Z,10.34
2019-04-21T04:12:01.094Z,10.29
2019-04-21T04:16:20.236Z,10.18
2019-04-21T04:24:39.107Z,10.11
2019-04-21T04:28:49.913Z,10.09
2019-04-21T04:32:42.107Z,10.02
2019-04-21T04:37:15.529Z,9.98
2019-04-21T04:41:22.298Z,10.24
2019-04-21T04:49:43.605Z,10.12
2019-04-21T04:53:42.740Z,9.93
2019-04-21T05:01:57.666Z,10.09
2019-04-21T05:10:44.896Z,10.04
2019-04-21T05:14:38.997Z,10.17
2019-04-21T05:18:56.365Z,10.32
2019-04-21T05:22:42.625Z,10.35
2019-04-21T05:26:47.961Z,10.21
2019-04-21T05:31:13.874Z,10.21
2019-04-21T05:35:24.468Z,9.90
2019-04-21T05:39:23.135Z,10.29
2019-04-21T05:43:40.421Z,10.61
2019-04-21T05:48:12.230Z,10.67
2019-04-21T05:52:03.728Z,10.90
2019-04-21T05:56:46.473Z,10.63
2019-04-21T06:01:14.847Z,10.97
2019-04-21T06:09:17.853Z,11.30
2019-04-21T06:13:26.879Z,11.73
2019-04-21T06:17:33.115Z,11.78
2019-04-21T06:21:33.242Z,11.91
2019-04-21T06:29:50.096Z,12.44
2019-04-21T06:34:08.102Z,12.78
2019-04-21T06:38:04.649Z,12.98
2019-04-21T06:42:09.788Z,13.29
2019-04-21T06:46:21.337Z,13.57
2019-04-21T06:50:23.948Z,13.74
2019-04-21T06:54:33.898Z,14.00
2019-04-21T06:58:35.863Z,14.23
2019-04-21T07:10:56.789Z,14.87
2019-04-21T07:15:06.710Z,14.96
2019-04-21T07:19:25.744Z,15.11
2019-04-21T07:23:24.833Z,15.42
2019-04-21T07:27:30.190Z,15.63
2019-04-21T07:31:39.810Z,15.72
2019-04-21T07:35:46.080Z,15.69
2019-04-21T07:39:45.051Z,16.03
2019-04-21T07:43:55.686Z,16.51
2019-04-21T07:48:16.101Z,16.62
2019-04-21T07:52:52.139Z,16.64
2019-04-21T07:56:34.919Z,16.90
2019-04-21T08:00:56.445Z,16.90
2019-04-21T08:05:13.471Z,17.28
2019-04-21T08:09:07.354Z,17.43
2019-04-21T08:13:23.042Z,17.65
2019-04-21T08:17:24.169Z,17.56
2019-04-21T08:21:37.225Z,17.82
2019-04-21T08:25:50.836Z,18.36
2019-04-21T08:29:48.880Z,18.12
2019-04-21T08:34:01.975Z,18.27
2019-04-21T08:38:05.342Z,18.76
2019-04-21T08:42:03.333Z,18.70
2019-04-21T08:46:13.831Z,19.09
2019-04-21T08:50:20.868Z,19.12
2019-04-21T08:54:26.543Z,19.45
2019-04-21T08:58:59.065Z,19.77
2019-04-21T09:03:11.737Z,19.86
2019-04-21T09:07:13.009Z,20.28
2019-04-21T09:11:16.341Z,20.12
2019-04-21T09:15:27.744Z,19.94
2019-04-21T09:19:44.291Z,20.81
2019-04-21T09:23:39.234Z,20.75
2019-04-21T09:27:55.603Z,21.15
2019-04-21T09:31:46.019Z,21.21
2019-04-21T09:35:58.827Z,21.46
2019-04-21T09:39:57.861Z,21.86
2019-04-21T09:44:06.873Z,21.76
2019-04-21T09:48:16.448Z,21.77
2019-04-21T09:52:23.203Z,22.14
2019-04-21T09:56:34.385Z,22.18
2019-04-21T10:00:42.476Z,21.57
2019-04-21T10:04:37.981Z,21.96
2019-04-21T10:08:44.529Z,22.39
2019-04-21T10:12:49.990Z,22.14
2019-04-21T10:17:15.082Z,22.88
2019-04-21T10:21:21.686Z,22.88
2019-04-21T10:25:28.256Z,23.01
2019-04-21T10:29:35.793Z,23.07
2019-04-21T10:34:05.269Z,23.04
2019-04-21T10:38:10.405Z,23.49
2019-04-21T10:42:01.527Z,23.28
2019-04-21T10:46:06.714Z,23.94
2019-04-21T10:50:13.206Z,23.55
2019-04-21T10:54:19.986Z,23.62
2019-04-21T10:58:28.555Z,23.55
2019-04-21T11:02:39.606Z,24.61
2019-04-21T11:06:46.324Z,24.12
2019-04-21T11:10:51.964Z,24.38
2019-04-21T11:14:57.075Z,24.98
2019-04-21T11:19:02.241Z,24.03
2019-04-21T11:23:08.043Z,24.15
2019-04-21T11:27:13.102Z,23.99
2019-04-21T11:31:18.792Z,26.03
2019-04-21T11:35:25.468Z,25.90
2019-04-21T11:39:42.139Z,25.39
2019-04-21T11:43:39.184Z,24.25
2019-04-21T11:48:03.992Z,24.93
2019-04-21T11:52:16.918Z,24.14
2019-04-21T11:56:23.087Z,24.29
2019-04-21T12:00:29.454Z,24.90
2019-04-21T12:04:35.783Z,24.18
2019-04-21T12:08:45.724Z,25.08
2019-04-21T12:12:47.621Z,24.61
2019-04-21T12:16:55.171Z,24.51
2019-04-21T12:21:01.212Z,26.05
2019-04-21T12:25:11.150Z,24.92
2019-04-21T12:29:16.653Z,25.68
2019-04-21T12:33:28.229Z,26.33
2019-04-21T12:37:33.393Z,26.50
2019-04-21T12:41:38.599Z,24.81
2019-04-21T12:45:44.107Z,25.75
2019-04-21T12:49:49.879Z,26.57
2019-04-21T12:53:55.038Z,25.28
2019-04-21T12:58:01.416Z,26.12
2019-04-21T13:02:07.751Z,26.67
2019-04-21T13:06:13.859Z,25.97
2019-04-21T13:10:20.234Z,26.02
2019-04-21T13:14:26.132Z,26.73
2019-04-21T13:18:31.399Z,26.02
2019-04-21T13:22:37.536Z,27.55
2019-04-21T13:26:47.389Z,26.14
2019-04-21T13:30:50.655Z,26.58
2019-04-21T13:34:57.018Z,27.40
2019-04-21T13:43:27.338Z,25.64
2019-04-21T13:47:32.646Z,26.07
2019-04-21T13:51:38.224Z,27.26
2019-04-21T13:55:44.655Z,27.27
2019-04-21T13:59:51.311Z,27.80
2019-04-21T14:03:57.739Z,28.08
2019-04-21T14:08:03.163Z,27.60
2019-04-21T14:12:09.568Z,27.89
2019-04-21T14:16:16.025Z,28.09
2019-04-21T14:20:21.667Z,28.07
2019-04-21T14:24:26.809Z,27.55
2019-04-21T14:28:32.170Z,27.70
2019-04-21T14:32:37.997Z,30.06
2019-04-21T14:36:44.559Z,27.85
2019-04-21T14:42:38.229Z,29.85
2019-04-21T14:45:12.821Z,28.49
2019-04-21T14:49:23.597Z,28.53
2019-04-21T14:53:36.031Z,28.13
2019-04-21T14:57:41.201Z,28.58
2019-04-21T15:01:46.404Z,28.77
2019-04-21T15:05:51.928Z,28.24
2019-04-21T15:10:04.431Z,28.79
2019-04-21T15:14:04.114Z,28.71
2019-04-21T15:18:10.459Z,30.34
2019-04-21T15:22:16.456Z,28.40
2019-04-21T15:26:22.088Z,28.16
2019-04-21T15:30:27.169Z,30.16
2019-04-21T15:34:32.318Z,29.89
2019-04-21T15:38:38.091Z,28.06
2019-04-21T15:42:44.354Z,28.20
2019-04-21T15:46:50.537Z,34.42
2019-04-21T15:50:56.768Z,31.40
2019-04-21T15:55:06.520Z,33.15
2019-04-21T15:59:28.345Z,33.54
2019-04-21T16:03:34.486Z,33.17
2019-04-21T16:07:40.299Z,28.23
2019-04-21T16:11:46.140Z,28.89
2019-04-21T16:15:52.411Z,31.94
2019-04-21T16:19:57.753Z,32.13
2019-04-21T16:24:02.885Z,30.16
2019-04-21T16:28:08.911Z,35.94
2019-04-21T16:32:17.526Z,29.38
2019-04-21T16:36:20.945Z,30.76
2019-04-21T16:40:27.639Z,29.78
2019-04-21T16:44:34.620Z,33.01
2019-04-21T16:48:39.952Z,29.84
2019-04-21T16:52:52.260Z,29.88
2019-04-21T16:57:12.400Z,29.60
2019-04-21T17:01:22.400Z,28.74
2019-04-21T17:05:28.013Z,32.20
2019-04-21T17:09:34.625Z,32.20
2019-04-21T17:13:39.921Z,31.89
2019-04-21T17:18:06.387Z,28.98
2019-04-21T17:21:52.171Z,28.69
2019-04-21T17:25:57.390Z,29.08
2019-04-21T17:30:02.532Z,28.37
2019-04-21T17:34:13.741Z,28.92
2019-04-21T17:38:14.592Z,28.53
2019-04-21T17:42:29.787Z,28.89
2019-04-21T17:46:36.665Z,27.06
2019-04-21T17:50:47.491Z,26.70
2019-04-21T17:55:10.381Z,28.42
2019-04-21T17:59:46.360Z,27.71
2019-04-21T18:07:46.407Z,26.56
2019-04-21T18:11:51.088Z,26.52
2019-04-21T18:15:56.808Z,26.10
2019-04-21T18:19:51.752Z,25.07
2019-04-21T18:24:07.345Z,24.91
2019-04-21T18:28:06.651Z,24.20
2019-04-21T18:32:12.645Z,22.58
2019-04-21T18:36:29.064Z,22.58
2019-04-21T18:40:36.405Z,21.83
2019-04-21T18:49:11.352Z,21.29
2019-04-21T18:53:41.188Z,21.00
2019-04-21T18:57:39.310Z,20.87
2019-04-21T19:01:38.914Z,20.72
2019-04-21T19:05:49.080Z,20.45
2019-04-21T19:10:26.747Z,20.41
2019-04-21T19:14:36.188Z,20.48
2019-04-21T19:22:38.760Z,20.30
2019-04-21T19:30:56.475Z,20.09
2019-04-21T19:34:40.903Z,19.74
2019-04-21T19:38:55.963Z,19.76
2019-04-21T19:43:02.993Z,19.57
2019-04-21T19:47:25.947Z,19.36
2019-04-21T19:51:24.406Z,19.43
2019-04-21T19:55:13.963Z,19.23
2019-04-21T19:59:31.818Z,19.08
2019-04-21T20:03:26.360Z,18.89
2019-04-21T20:07:49.447Z,18.73
2019-04-21T20:11:54.995Z,18.61
2019-04-21T20:16:07.985Z,18.60
2019-04-21T20:19:54.395Z,18.31
2019-04-21T20:24:06.079Z,18.35
2019-04-21T20:28:15.059Z,18.13
2019-04-21T20:32:30.559Z,18.15
2019-04-21T20:36:41.868Z,18.05
2019-04-21T20:40:36.203Z,17.92
2019-04-21T20:44:54.622Z,17.81
2019-04-21T20:48:52.339Z,17.72
2019-04-21T20:53:04.583Z,17.83
2019-04-21T20:57:11.390Z,17.61
2019-04-21T21:01:31.316Z,17.75
2019-04-21T21:05:23.362Z,17.55
2019-04-21T21:09:28.251Z,17.51
2019-04-21T21:13:42.781Z,17.58
2019-04-21T21:17:52.430Z,17.58
2019-04-21T21:21:48.619Z,17.68
2019-04-21T21:26:01.896Z,17.33
2019-04-21T21:30:05.509Z,17.08
2019-04-21T21:34:15.325Z,17.17
2019-04-21T21:38:21.339Z,17.16
2019-04-21T21:42:11.449Z,17.05
2019-04-21T21:46:37.169Z,17.17
2019-04-21T21:50:29.531Z,16.72
2019-04-21T21:54:29.997Z,16.73
2019-04-21T21:58:39.278Z,16.51
2019-04-21T22:02:47.615Z,16.16
2019-04-21T22:06:57.578Z,15.79
2019-04-21T22:10:56.968Z,15.93
2019-04-21T22:15:09.054Z,15.49
2019-04-21T22:19:25.731Z,15.57
2019-04-21T22:23:29.529Z,15.77
2019-04-21T22:27:23.371Z,15.61
2019-04-21T22:31:33.663Z,15.68
2019-04-21T22:35:42.569Z,15.07
2019-04-21T22:39:57.897Z,14.86
2019-04-21T22:43:51.763Z,14.46
2019-04-21T22:48:05.274Z,14.65
2019-04-21T22:52:08.848Z,14.67
2019-04-21T22:56:14.953Z,14.33
2019-04-21T23:00:19.200Z,14.74
2019-04-21T23:04:35.858Z,14.46
2019-04-21T23:08:36.959Z,14.56
2019-04-21T23:12:41.808Z,14.85
2019-04-21T23:16:50.669Z,14.60
2019-04-21T23:21:10.161Z,14.17
2019-04-21T23:25:19.858Z,13.71
2019-04-21T23:29:39.549Z,13.82
2019-04-21T23:33:17.986Z,13.54
2019-04-21T23:37:25.378Z,13.31
2019-04-21T23:41:40.461Z,13.79
2019-04-21T23:45:44.686Z,14.19
2019-04-21T23:49:59.611Z,14.26
2019-04-21T23:53:55.446Z,14.17
2019-04-21T23:58:06.954Z,14.08
